Flight Track Log - Related Links

Times and Time Zones

All times are in EDT time to prevent confusion due to time zone crossing. See the N84WS flight status page for this flight to view local times or setup timezone preferences in your user account.

Time Position Orientation Groundspeed Altitude Reporting Facility
EDT Latitude Longitude Course Direction KTS MPH feet Rate Location/Type
Sun 11:54:00 AM 41.4310 -70.2015 329° Northwest  Level FlightAware Approximate
Sun 11:55:00 AM 41.4617 -70.2257 330° Northwest  Level FlightAware Approximate
Sun 11:56:00 AM 41.4926 -70.2495 330° Northwest  Level FlightAware Approximate
Sun 11:57:00 AM 41.5234 -70.2734 330° Northwest  Level FlightAware Approximate
Sun 11:58:00 AM 41.5542 -70.2972 330° Northwest  Level FlightAware Approximate
Sun 11:59:00 AM 41.5851 -70.3211 330° Northwest  Level FlightAware Approximate
Sun 12:00:00 PM 41.6159 -70.3450 330° Northwest  Level FlightAware Approximate
Sun 12:01:00 PM 41.6467 -70.3690 330° Northwest  Level FlightAware Approximate
Sun 12:02:00 PM 41.6776 -70.3929 330° Northwest  Level FlightAware Approximate
Sun 12:03:00 PM 41.7084 -70.4169 330° Northwest  Level FlightAware Approximate
Sun 12:04:00 PM 41.7392 -70.4409 330° Northwest  Level FlightAware Approximate
Sun 12:05:00 PM 41.7700 -70.4650 330° Northwest  Level FlightAware Approximate
Sun 12:05:31 PM 41.7833 -70.4667 317° Northwest 137 158 3,900  Level KA90
Sun 12:06:00 PM 41.8008 -70.4890 330° Northwest  Level FlightAware Approximate
Sun 12:06:19 PM 41.8000 -70.4833 323° Northwest 139 160 3,900  Level KA90
Sun 12:07:00 PM 41.8316 -70.5131 330° Northwest  Level FlightAware Approximate
Sun 12:07:20 PM 41.8333 -70.5167 323° Northwest 140 161 3,900  Level KA90
Sun 12:08:00 PM 41.8624 -70.5372 330° Northwest  Level FlightAware Approximate
Sun 12:08:20 PM 41.8667 -70.5500 323° Northwest 141 162 3,900  Level KA90
Sun 12:09:00 PM 41.8931 -70.5613 330° Northwest  Level FlightAware Approximate
Sun 12:09:20 PM 41.9000 -70.5833 323° Northwest 139 160 3,900  Level KA90
Sun 12:10:00 PM 41.9203 -70.5920 317° Northwest  Level FlightAware Approximate
Sun 12:10:20 PM 41.9333 -70.6167 323° Northwest 138 159 3,900  Level KA90
Sun 12:11:20 PM 41.9500 -70.6500 304° West 140 161 3,900  Level KA90
Sun 12:12:14 PM 41.9667 -70.7000 294° West 136 157 3,900  Level KA90
Sun 12:13:14 PM 42.0000 -70.7333 323° Northwest 133 153 3,900  Level KA90
Sun 12:14:14 PM 42.0000 -70.7833 270° West 131 151 3,900  Level KA90
Sun 12:15:14 PM 42.0000 -70.8333 270° West 131 151 3,900  Level KA90
Sun 12:16:08 PM 42.0167 -70.8833 294° West 135 155 3,900 -158 Level KA90
Sun 12:17:08 PM 42.0167 -70.9333 270° West 136 157 3,600 -350 Descending KA90
Sun 12:18:08 PM 42.0333 -70.9833 294° West 146 168 3,200 -300 Descending KA90
Sun 12:19:08 PM 42.0500 -71.0333 294° West 147 169 3,000 -100 Descending KA90
Sun 12:20:08 PM 42.0500 -71.0833 270° West 133 153 3,000  Level KA90
Sun 12:21:03 PM 42.0667 -71.1167 304° West 131 151 3,000 -52 Level KA90
Sun 12:22:03 PM 42.0833 -71.1500 304° West 127 146 2,900  Descending KA90
Sun 12:23:03 PM 42.1167 -71.2000 312° West 129 148 3,000 48 Climbing KA90
Sun 12:24:08 PM 42.1333 -71.2333 304° West 133 153 3,000  Level KA90
Sun 12:25:03 PM 42.1667 -71.2667 323° Northwest 144 166 3,000  Level KA90
Sun 12:26:03 PM 42.2000 -71.2667 360° North 146 168 3,000  Level KA90
Sun 12:27:03 PM 42.2333 -71.2833 340° North 144 166 3,000  Level KA90
Sun 12:28:09 PM 42.2833 -71.3000 346° North 144 166 3,000  Level KA90
Sun 12:29:09 PM 42.3167 -71.3167 340° North 146 168 3,000  Level KA90
Sun 12:30:09 PM 42.3667 -71.3333 346° North 156 180 3,000  Level KA90
Sun 12:31:09 PM 42.4000 -71.3333 360° North 141 162 3,000 -450 Level KA90
Sun 12:32:09 PM 42.4333 -71.3167 20° North 154 177 2,100 -942 Descending KA90
Sun 12:33:10 PM 42.4667 -71.2667 48° Northeast 139 160 1,100 -678 Descending KA90
Sun 12:34:04 PM 42.4833 -71.2500 36° Northeast 106 122 800 -333 Descending KA90

Login

Don't have an account? Register now (free) for customized features, flight alerts, and more!